Avon, Ohio
Current Conditions -  °F | °C
As of 7:51 AM on Friday 31 Oct 2014 (Local Time) from KCLE Reporting Station
Overcast Overcast  
Wind Chill: 41°   Ceiling: 4700
Heat Index: 44°   Visibility: 10mi
Dew Point: 36°   Wind: 6mph
Humidity: 73%   Direction: 200°SSW
Pressure: 29.96"   Gusts: NA
Location:  41.47°N, 82.02°W
Report Text: KCLE 311151Z 20005KT 10SM BKN047 OVC060 07/02 A2996 RMK AO2 SLP148 T00670022 10067 20061 57011 $
Loading
Personal Weather Stations






























Interactive Weather Map
Tropical Storm Tracking
New forecast layout! Learn more

10-Day Weather Forecast

Advertisements
Track Severe Weather on mobile